x

Fowey Rock, Fl (fwyf1) Weather Station

11:00am - Fri 24th Oct 2014 All times are EDT. -4 hours from GMT.

  • Wind
    36mph, 39mph gusts
  • Sea Temp 82°f
  • Air Temp 75°f
  • Sea Pressure 1011mb
  • Fowey Rock, Fl
  • Fowey Rock, Fl

More Historic Weather Station data

Upgrade to MSW Pro to gain access to the past 30 days of data for over 8000 Wavebouys and Weather Stations around the globe.

Join Pro

Comparision Forecast

View Surf forecast
   
Fri 10/24 11:00am 36 39 mph 1011mb 82f 75f
10:00am 33 36 mph 1011.1mb 82f 76f
9:00am 32 34 mph 1010.6mb 82f 78f
8:00am 29 30 mph 1010.1mb 81f 78f
7:00am 29 31 mph 1009.9mb 81f 77f
6:00am 28 30 mph 1009.8mb 81f 76f
5:00am 24 25 mph 1009.9mb 80f 78f
4:00am 21 23 mph 1010.1mb 79f 76f
3:00am 23 25 mph 1010.4mb 79f 76f
2:00am 21 25 mph 1011mb 80f 78f
1:00am 28 30 mph 1011.7mb 80f 79f
12:00am 22 24 mph 1012.3mb 80f 80f
Thu 10/23 11:00pm 25 28 mph 1012.7mb 80f 79f
10:00pm 28 30 mph 1012.3mb 80f 79f
9:00pm 26 29 mph 1012mb 80f 79f
8:00pm 24 28 mph 1011.6mb 80f 79f
7:00pm 29 32 mph 1011.6mb 80f 77f
6:00pm 16 18 mph 1011.4mb 80f 77f
5:00pm 15
mph
1011.2mb 80f 78f
4:00pm 15 16 mph 1011.2mb 80f 78f
3:00pm 16 18 mph 1011.9mb 80f 77f
2:00pm 11 14 mph 1012mb 80f 79f
1:00pm 13 15 mph 1013mb 81f 79f
12:00pm 14 15 mph 1013.9mb 81f 79f
11:00am 10 11 mph 1013.7mb 81f 78f
10:00am 11 13 mph 1013.7mb 81f 78f
9:00am 10 11 mph 1013.3mb 81f 78f
8:00am 15 16 mph 1012.5mb 81f 78f
7:00am 13
mph
1012.3mb 80f 77f
6:00am 13 16 mph 1012.2mb 80f 78f
5:00am 8 9 mph 1012mb 80f 78f
4:00am 7 8 mph 1012.2mb 80f 78f
3:00am 8 9 mph 1012.7mb 80f 78f
2:00am 10 11 mph 1013mb 80f 78f
1:00am 7 8 mph 1013.6mb 80f 78f
12:00am 9
mph
1013.6mb 81f 78f
Wed 10/22 11:00pm 7 8 mph 1013.9mb 81f 77f
10:00pm 17 18 mph 1014.1mb 81f 78f
9:00pm 6
mph
1014.5mb 81f 78f
8:00pm 3 5 mph 1014.2mb 81f 79f
7:00pm 6 7 mph 1013.7mb 81f 79f
6:00pm 7 8 mph 1013.1mb 81f 79f
5:00pm 6 7 mph 1012.9mb 81f 78f
4:00pm 5 6 mph 1012.8mb 81f 80f
3:00pm 5 6 mph 1013mb 81f 80f
2:00pm 2
mph
1013.5mb 82f 81f
1:00pm 5
mph
1014.6mb 82f 80f
12:00pm 9
mph
1015mb 82f 80f
11:00am 7
mph
1015.3mb 82f 80f
10:00am 9 10 mph 1015.2mb 82f 80f
9:00am 6
mph
1014.8mb 82f 80f
8:00am 7 8 mph 1014.2mb 82f 79f
7:00am 7
mph
1013.8mb 82f 78f
6:00am 2
mph
1013.4mb 82f 80f
5:00am 6
mph
1012.9mb 82f 80f
4:00am 5 6 mph 1012.8mb 82f 80f
3:00am 3 5 mph 1013.1mb 81f 80f
2:00am 3
mph
1013.4mb 82f 80f
1:00am 7
mph
1014mb 82f 80f
12:00am 8 9 mph 1014.4mb 82f 79f
Tue 10/21 11:00pm 7
mph
1014.9mb 82f 79f
10:00pm 7 8 mph 1014.9mb 82f 78f
9:00pm 8 9 mph 1014.9mb 82f 78f
8:00pm 8
mph
1014.4mb 82f 78f
7:00pm 10 13 mph 1013.7mb 82f 78f
6:00pm 7 8 mph 1013.7mb 82f 77f
5:00pm 6 7 mph 1013mb 82f 77f
4:00pm 15 16 mph 1013.1mb 82f 76f
3:00pm 16 17 mph 1013.5mb 82f 78f
2:00pm 18 21 mph 1014.2mb 82f 79f
1:00pm 16 20 mph 1014.8mb 82f 78f
12:00pm 13 15 mph 1015.1mb 82f 80f
11:00am 8 9 mph 1015.4mb 82f 80f
10:00am 10 11 mph 1015.1mb 82f 81f
9:00am 15 16 mph 1014.5mb 82f 79f
8:00am 20 22 mph 1013.8mb 82f 78f
7:00am 16 17 mph 1013.9mb 83f 78f
6:00am 7
mph
1013.6mb 83f 78f
5:00am 14 15 mph 1013mb 83f 77f
4:00am 13 14 mph 1013.2mb 82f 76f
3:00am 9 10 mph 1013.2mb 82f 81f
2:00am 9 10 mph 1013.9mb 82f 81f
1:00am 13 15 mph 1014.4mb 82f 82f
12:00am 10 11 mph 1015.3mb 82f 81f
Mon 10/20 11:00pm 15 16 mph 1015.6mb 82f 80f
10:00pm 15 16 mph 1015.6mb 83f 78f
9:00pm 11 13 mph 1015.1mb 83f 76f
8:00pm 14 15 mph 1015.2mb 83f 73f
7:00pm 9 11 mph 1015.5mb 83f 72f
6:00pm 9
mph
1014.4mb 83f 76f
5:00pm 14 18 mph 1014.2mb 83f 79f